sensor_id;sensor_type;location;lat;lon;timestamp;P1;durP1;ratioP1;P2;durP2;ratioP2
18013;SDS011;9132;47.946;10.394;2023-01-01T00:02:04;29.57;;;22.43;;
18013;SDS011;9132;47.946;10.394;2023-01-01T00:04:31;32.33;;;24.60;;
18013;SDS011;9132;47.946;10.394;2023-01-01T00:06:58;23.23;;;18.77;;
18013;SDS011;9132;47.946;10.394;2023-01-01T00:09:26;30.07;;;21.73;;
18013;SDS011;9132;47.946;10.394;2023-01-01T00:12:09;32.97;;;24.10;;
18013;SDS011;9132;47.946;10.394;2023-01-01T00:14:36;21.47;;;15.43;;
18013;SDS011;9132;47.946;10.394;2023-01-01T00:17:03;26.43;;;20.10;;
18013;SDS011;9132;47.946;10.394;2023-01-01T00:19:29;42.90;;;30.70;;
18013;SDS011;9132;47.946;10.394;2023-01-01T00:21:56;29.30;;;22.70;;
18013;SDS011;9132;47.946;10.394;2023-01-01T00:24:22;31.30;;;22.97;;
18013;SDS011;9132;47.946;10.394;2023-01-01T00:26:49;40.33;;;29.00;;
18013;SDS011;9132;47.946;10.394;2023-01-01T00:29:16;33.37;;;22.93;;
18013;SDS011;9132;47.946;10.394;2023-01-01T00:31:42;24.47;;;16.07;;
18013;SDS011;9132;47.946;10.394;2023-01-01T00:34:09;30.50;;;23.63;;
18013;SDS011;9132;47.946;10.394;2023-01-01T00:36:35;36.13;;;28.03;;
18013;SDS011;9132;47.946;10.394;2023-01-01T00:39:02;38.93;;;30.53;;
18013;SDS011;9132;47.946;10.394;2023-01-01T00:41:28;46.87;;;38.37;;
18013;SDS011;9132;47.946;10.394;2023-01-01T00:43:56;42.70;;;32.33;;
18013;SDS011;9132;47.946;10.394;2023-01-01T00:46:22;29.73;;;23.33;;
18013;SDS011;9132;47.946;10.394;2023-01-01T00:48:48;24.23;;;19.33;;
18013;SDS011;9132;47.946;10.394;2023-01-01T00:51:15;21.67;;;17.30;;
18013;SDS011;9132;47.946;10.394;2023-01-01T00:53:41;20.23;;;14.90;;
18013;SDS011;9132;47.946;10.394;2023-01-01T00:56:07;34.33;;;24.90;;
18013;SDS011;9132;47.946;10.394;2023-01-01T00:58:34;29.90;;;21.80;;
18013;SDS011;9132;47.946;10.394;2023-01-01T01:01:01;26.27;;;21.40;;
18013;SDS011;9132;47.946;10.394;2023-01-01T01:03:28;25.27;;;19.60;;
18013;SDS011;9132;47.946;10.394;2023-01-01T01:05:54;22.83;;;18.87;;
18013;SDS011;9132;47.946;10.394;2023-01-01T01:08:21;35.87;;;29.83;;
18013;SDS011;9132;47.946;10.394;2023-01-01T01:10:47;29.57;;;22.83;;
18013;SDS011;9132;47.946;10.394;2023-01-01T01:13:14;26.77;;;21.23;;
18013;SDS011;9132;47.946;10.394;2023-01-01T01:15:40;22.70;;;19.40;;
18013;SDS011;9132;47.946;10.394;2023-01-01T01:18:08;19.50;;;15.93;;
18013;SDS011;9132;47.946;10.394;2023-01-01T01:20:34;25.17;;;19.90;;
18013;SDS011;9132;47.946;10.394;2023-01-01T01:23:00;17.07;;;12.57;;
18013;SDS011;9132;47.946;10.394;2023-01-01T01:25:26;14.27;;;10.97;;
18013;SDS011;9132;47.946;10.394;2023-01-01T01:27:53;12.07;;;8.40;;
18013;SDS011;9132;47.946;10.394;2023-01-01T01:30:19;8.30;;;6.73;;
18013;SDS011;9132;47.946;10.394;2023-01-01T01:32:45;6.57;;;5.50;;
18013;SDS011;9132;47.946;10.394;2023-01-01T01:35:13;5.87;;;4.93;;
18013;SDS011;9132;47.946;10.394;2023-01-01T01:37:39;7.87;;;5.50;;
18013;SDS011;9132;47.946;10.394;2023-01-01T01:40:06;7.37;;;5.30;;
18013;SDS011;9132;47.946;10.394;2023-01-01T01:42:33;5.93;;;4.87;;
18013;SDS011;9132;47.946;10.394;2023-01-01T01:44:59;4.77;;;3.90;;
18013;SDS011;9132;47.946;10.394;2023-01-01T01:47:27;6.33;;;4.53;;
18013;SDS011;9132;47.946;10.394;2023-01-01T01:49:56;6.60;;;5.87;;
18013;SDS011;9132;47.946;10.394;2023-01-01T01:52:26;7.60;;;6.47;;
18013;SDS011;9132;47.946;10.394;2023-01-01T01:54:53;9.70;;;6.17;;
18013;SDS011;9132;47.946;10.394;2023-01-01T01:57:20;6.87;;;5.57;;
18013;SDS011;9132;47.946;10.394;2023-01-01T01:59:47;6.00;;;5.17;;
18013;SDS011;9132;47.946;10.394;2023-01-01T02:02:16;6.90;;;5.60;;
18013;SDS011;9132;47.946;10.394;2023-01-01T02:04:44;8.07;;;5.17;;
18013;SDS011;9132;47.946;10.394;2023-01-01T02:07:11;7.50;;;5.90;;
18013;SDS011;9132;47.946;10.394;2023-01-01T02:09:40;6.87;;;5.13;;
18013;SDS011;9132;47.946;10.394;2023-01-01T02:12:07;8.87;;;5.73;;
18013;SDS011;9132;47.946;10.394;2023-01-01T02:14:33;7.00;;;5.50;;
18013;SDS011;9132;47.946;10.394;2023-01-01T02:17:01;7.60;;;5.90;;
18013;SDS011;9132;47.946;10.394;2023-01-01T02:19:35;7.03;;;5.67;;
18013;SDS011;9132;47.946;10.394;2023-01-01T02:22:05;8.30;;;5.30;;
18013;SDS011;9132;47.946;10.394;2023-01-01T02:27:19;7.67;;;5.23;;
18013;SDS011;9132;47.946;10.394;2023-01-01T02:29:49;5.33;;;4.50;;
18013;SDS011;9132;47.946;10.394;2023-01-01T02:32:18;5.07;;;4.00;;
18013;SDS011;9132;47.946;10.394;2023-01-01T02:34:45;4.60;;;3.90;;
18013;SDS011;9132;47.946;10.394;2023-01-01T02:37:14;4.43;;;3.40;;
18013;SDS011;9132;47.946;10.394;2023-01-01T02:39:41;3.63;;;3.07;;
18013;SDS011;9132;47.946;10.394;2023-01-01T02:42:09;3.80;;;2.67;;
18013;SDS011;9132;47.946;10.394;2023-01-01T02:44:37;4.00;;;2.60;;
18013;SDS011;9132;47.946;10.394;2023-01-01T02:47:08;3.87;;;2.77;;
18013;SDS011;9132;47.946;10.394;2023-01-01T02:49:35;3.40;;;2.40;;
18013;SDS011;9132;47.946;10.394;2023-01-01T02:52:04;3.47;;;2.73;;
18013;SDS011;9132;47.946;10.394;2023-01-01T02:54:32;3.47;;;2.73;;
18013;SDS011;9132;47.946;10.394;2023-01-01T02:57:02;3.30;;;2.40;;
18013;SDS011;9132;47.946;10.394;2023-01-01T02:59:31;3.80;;;2.20;;
18013;SDS011;9132;47.946;10.394;2023-01-01T03:02:18;2.77;;;2.50;;
18013;SDS011;9132;47.946;10.394;2023-01-01T03:04:49;3.10;;;2.50;;
18013;SDS011;9132;47.946;10.394;2023-01-01T03:07:21;3.17;;;2.47;;
18013;SDS011;9132;47.946;10.394;2023-01-01T03:09:50;3.60;;;2.73;;
18013;SDS011;9132;47.946;10.394;2023-01-01T03:12:20;4.43;;;3.13;;
18013;SDS011;9132;47.946;10.394;2023-01-01T03:14:50;5.37;;;3.10;;
18013;SDS011;9132;47.946;10.394;2023-01-01T03:17:23;3.57;;;2.90;;
18013;SDS011;9132;47.946;10.394;2023-01-01T03:19:51;3.30;;;2.60;;
18013;SDS011;9132;47.946;10.394;2023-01-01T03:22:18;3.37;;;2.60;;
18013;SDS011;9132;47.946;10.394;2023-01-01T03:24:47;4.27;;;2.80;;
18013;SDS011;9132;47.946;10.394;2023-01-01T03:27:19;3.13;;;2.70;;
18013;SDS011;9132;47.946;10.394;2023-01-01T03:29:46;4.87;;;3.10;;
18013;SDS011;9132;47.946;10.394;2023-01-01T03:32:14;5.27;;;2.90;;
18013;SDS011;9132;47.946;10.394;2023-01-01T03:34:46;3.60;;;3.10;;
18013;SDS011;9132;47.946;10.394;2023-01-01T03:37:18;4.87;;;3.80;;
18013;SDS011;9132;47.946;10.394;2023-01-01T03:39:47;4.17;;;3.20;;
18013;SDS011;9132;47.946;10.394;2023-01-01T03:42:16;4.47;;;3.13;;
18013;SDS011;9132;47.946;10.394;2023-01-01T03:44:46;3.60;;;2.93;;
18013;SDS011;9132;47.946;10.394;2023-01-01T03:47:13;4.40;;;3.70;;
18013;SDS011;9132;47.946;10.394;2023-01-01T03:49:40;3.87;;;3.30;;
18013;SDS011;9132;47.946;10.394;2023-01-01T03:52:12;3.33;;;3.03;;
18013;SDS011;9132;47.946;10.394;2023-01-01T03:54:43;4.07;;;3.33;;
18013;SDS011;9132;47.946;10.394;2023-01-01T03:57:12;4.63;;;3.37;;
18013;SDS011;9132;47.946;10.394;2023-01-01T03:59:40;5.93;;;3.03;;
18013;SDS011;9132;47.946;10.394;2023-01-01T04:02:09;4.07;;;3.33;;
18013;SDS011;9132;47.946;10.394;2023-01-01T04:04:36;5.37;;;3.30;;
18013;SDS011;9132;47.946;10.394;2023-01-01T04:07:03;5.00;;;3.27;;
18013;SDS011;9132;47.946;10.394;2023-01-01T04:09:31;3.83;;;3.37;;
18013;SDS011;9132;47.946;10.394;2023-01-01T04:11:58;4.73;;;3.37;;
18013;SDS011;9132;47.946;10.394;2023-01-01T04:14:29;4.40;;;3.50;;
18013;SDS011;9132;47.946;10.394;2023-01-01T04:16:56;5.00;;;3.60;;
18013;SDS011;9132;47.946;10.394;2023-01-01T04:19:22;3.90;;;3.20;;
18013;SDS011;9132;47.946;10.394;2023-01-01T04:21:48;4.13;;;3.10;;
18013;SDS011;9132;47.946;10.394;2023-01-01T04:24:15;4.67;;;3.43;;
18013;SDS011;9132;47.946;10.394;2023-01-01T04:26:43;4.00;;;3.60;;
18013;SDS011;9132;47.946;10.394;2023-01-01T04:29:09;3.70;;;3.13;;
18013;SDS011;9132;47.946;10.394;2023-01-01T04:31:35;4.27;;;3.40;;
18013;SDS011;9132;47.946;10.394;2023-01-01T04:34:02;4.23;;;3.67;;
18013;SDS011;9132;47.946;10.394;2023-01-01T04:36:28;3.73;;;3.33;;
18013;SDS011;9132;47.946;10.394;2023-01-01T04:38:54;3.50;;;3.13;;
18013;SDS011;9132;47.946;10.394;2023-01-01T04:41:21;3.80;;;3.27;;
18013;SDS011;9132;47.946;10.394;2023-01-01T04:43:48;6.43;;;3.40;;
18013;SDS011;9132;47.946;10.394;2023-01-01T04:46:15;3.97;;;3.37;;
18013;SDS011;9132;47.946;10.394;2023-01-01T04:48:42;4.47;;;3.30;;
18013;SDS011;9132;47.946;10.394;2023-01-01T04:51:09;4.57;;;3.90;;
18013;SDS011;9132;47.946;10.394;2023-01-01T04:53:35;4.50;;;3.40;;
18013;SDS011;9132;47.946;10.394;2023-01-01T04:56:02;4.40;;;3.20;;
18013;SDS011;9132;47.946;10.394;2023-01-01T04:58:29;4.60;;;3.20;;
18013;SDS011;9132;47.946;10.394;2023-01-01T05:00:57;3.33;;;3.03;;
18013;SDS011;9132;47.946;10.394;2023-01-01T05:03:23;3.60;;;3.13;;
18013;SDS011;9132;47.946;10.394;2023-01-01T05:05:57;4.73;;;3.17;;
18013;SDS011;9132;47.946;10.394;2023-01-01T05:08:24;4.10;;;3.40;;
18013;SDS011;9132;47.946;10.394;2023-01-01T05:10:50;4.73;;;3.30;;
18013;SDS011;9132;47.946;10.394;2023-01-01T05:13:16;4.17;;;3.23;;
18013;SDS011;9132;47.946;10.394;2023-01-01T05:15:43;4.13;;;3.20;;
18013;SDS011;9132;47.946;10.394;2023-01-01T05:18:10;4.60;;;3.20;;
18013;SDS011;9132;47.946;10.394;2023-01-01T05:20:36;3.50;;;3.20;;
18013;SDS011;9132;47.946;10.394;2023-01-01T05:23:03;3.37;;;3.07;;
18013;SDS011;9132;47.946;10.394;2023-01-01T05:25:29;5.87;;;3.47;;
18013;SDS011;9132;47.946;10.394;2023-01-01T05:27:55;5.00;;;3.57;;
18013;SDS011;9132;47.946;10.394;2023-01-01T05:30:22;3.20;;;2.73;;
18013;SDS011;9132;47.946;10.394;2023-01-01T05:32:48;4.00;;;2.90;;
18013;SDS011;9132;47.946;10.394;2023-01-01T05:35:16;6.53;;;3.20;;
18013;SDS011;9132;47.946;10.394;2023-01-01T05:37:42;10.30;;;3.40;;
18013;SDS011;9132;47.946;10.394;2023-01-01T05:40:09;4.13;;;3.30;;
18013;SDS011;9132;47.946;10.394;2023-01-01T05:42:35;4.17;;;3.43;;
18013;SDS011;9132;47.946;10.394;2023-01-01T05:45:02;3.73;;;3.33;;
18013;SDS011;9132;47.946;10.394;2023-01-01T05:47:28;5.40;;;3.13;;
18013;SDS011;9132;47.946;10.394;2023-01-01T05:49:54;4.60;;;3.33;;
18013;SDS011;9132;47.946;10.394;2023-01-01T05:52:22;4.90;;;3.77;;
18013;SDS011;9132;47.946;10.394;2023-01-01T05:54:48;3.83;;;3.13;;
18013;SDS011;9132;47.946;10.394;2023-01-01T05:57:15;3.50;;;3.20;;
18013;SDS011;9132;47.946;10.394;2023-01-01T05:59:41;4.30;;;3.50;;
18013;SDS011;9132;47.946;10.394;2023-01-01T06:02:07;3.80;;;3.00;;
18013;SDS011;9132;47.946;10.394;2023-01-01T06:04:34;4.30;;;3.37;;
18013;SDS011;9132;47.946;10.394;2023-01-01T06:07:00;6.10;;;3.57;;
18013;SDS011;9132;47.946;10.394;2023-01-01T06:09:27;5.37;;;3.97;;
18013;SDS011;9132;47.946;10.394;2023-01-01T06:11:54;6.03;;;4.00;;
18013;SDS011;9132;47.946;10.394;2023-01-01T06:14:20;4.50;;;3.83;;
18013;SDS011;9132;47.946;10.394;2023-01-01T06:16:46;6.37;;;4.43;;
18013;SDS011;9132;47.946;10.394;2023-01-01T06:19:13;5.30;;;3.67;;
18013;SDS011;9132;47.946;10.394;2023-01-01T06:21:39;5.97;;;4.50;;
18013;SDS011;9132;47.946;10.394;2023-01-01T06:24:05;5.43;;;4.10;;
18013;SDS011;9132;47.946;10.394;2023-01-01T06:26:33;6.13;;;4.73;;
18013;SDS011;9132;47.946;10.394;2023-01-01T06:29:00;5.70;;;4.50;;
18013;SDS011;9132;47.946;10.394;2023-01-01T06:31:27;4.50;;;3.83;;
18013;SDS011;9132;47.946;10.394;2023-01-01T06:33:53;6.90;;;4.80;;
18013;SDS011;9132;47.946;10.394;2023-01-01T06:36:21;5.80;;;4.33;;
18013;SDS011;9132;47.946;10.394;2023-01-01T06:38:48;6.53;;;4.43;;
18013;SDS011;9132;47.946;10.394;2023-01-01T06:41:16;6.80;;;4.90;;
18013;SDS011;9132;47.946;10.394;2023-01-01T06:43:44;6.93;;;4.57;;
18013;SDS011;9132;47.946;10.394;2023-01-01T06:46:13;5.83;;;5.10;;
18013;SDS011;9132;47.946;10.394;2023-01-01T06:48:39;5.67;;;4.70;;
18013;SDS011;9132;47.946;10.394;2023-01-01T06:51:06;5.90;;;4.90;;
18013;SDS011;9132;47.946;10.394;2023-01-01T06:53:33;6.70;;;5.07;;
18013;SDS011;9132;47.946;10.394;2023-01-01T06:55:59;5.50;;;4.30;;
18013;SDS011;9132;47.946;10.394;2023-01-01T06:58:26;6.50;;;4.63;;
18013;SDS011;9132;47.946;10.394;2023-01-01T07:00:54;9.30;;;5.50;;
18013;SDS011;9132;47.946;10.394;2023-01-01T07:03:27;7.20;;;5.47;;
18013;SDS011;9132;47.946;10.394;2023-01-01T07:05:53;6.13;;;4.90;;
18013;SDS011;9132;47.946;10.394;2023-01-01T07:08:20;8.17;;;4.80;;
18013;SDS011;9132;47.946;10.394;2023-01-01T07:10:46;5.67;;;4.43;;
18013;SDS011;9132;47.946;10.394;2023-01-01T07:13:13;5.97;;;4.87;;
18013;SDS011;9132;47.946;10.394;2023-01-01T07:15:39;6.20;;;4.93;;
18013;SDS011;9132;47.946;10.394;2023-01-01T07:18:06;6.87;;;5.60;;
18013;SDS011;9132;47.946;10.394;2023-01-01T07:20:33;7.60;;;5.40;;
18013;SDS011;9132;47.946;10.394;2023-01-01T07:22:59;7.87;;;5.20;;
18013;SDS011;9132;47.946;10.394;2023-01-01T07:25:26;6.07;;;4.07;;
18013;SDS011;9132;47.946;10.394;2023-01-01T07:27:52;4.97;;;3.63;;
18013;SDS011;9132;47.946;10.394;2023-01-01T07:30:18;4.77;;;3.53;;
18013;SDS011;9132;47.946;10.394;2023-01-01T07:32:45;4.77;;;3.17;;
18013;SDS011;9132;47.946;10.394;2023-01-01T07:35:12;5.37;;;3.87;;
18013;SDS011;9132;47.946;10.394;2023-01-01T07:37:39;4.33;;;3.67;;
18013;SDS011;9132;47.946;10.394;2023-01-01T07:40:06;5.60;;;5.00;;
18013;SDS011;9132;47.946;10.394;2023-01-01T07:42:32;6.77;;;4.67;;
18013;SDS011;9132;47.946;10.394;2023-01-01T07:44:58;5.07;;;4.13;;
18013;SDS011;9132;47.946;10.394;2023-01-01T07:47:25;7.03;;;4.53;;
18013;SDS011;9132;47.946;10.394;2023-01-01T07:49:51;4.33;;;3.93;;
18013;SDS011;9132;47.946;10.394;2023-01-01T07:52:19;5.03;;;3.87;;
18013;SDS011;9132;47.946;10.394;2023-01-01T07:54:45;6.07;;;4.77;;
18013;SDS011;9132;47.946;10.394;2023-01-01T07:57:12;6.67;;;5.00;;
18013;SDS011;9132;47.946;10.394;2023-01-01T07:59:38;5.80;;;4.43;;
18013;SDS011;9132;47.946;10.394;2023-01-01T08:02:04;6.53;;;4.33;;
18013;SDS011;9132;47.946;10.394;2023-01-01T08:04:31;7.07;;;4.53;;
18013;SDS011;9132;47.946;10.394;2023-01-01T08:06:57;5.87;;;4.33;;
18013;SDS011;9132;47.946;10.394;2023-01-01T08:09:24;5.57;;;4.70;;
18013;SDS011;9132;47.946;10.394;2023-01-01T08:11:51;5.80;;;4.47;;
18013;SDS011;9132;47.946;10.394;2023-01-01T08:14:17;4.73;;;4.23;;
18013;SDS011;9132;47.946;10.394;2023-01-01T08:16:44;4.70;;;3.77;;
18013;SDS011;9132;47.946;10.394;2023-01-01T08:19:10;6.53;;;4.47;;
18013;SDS011;9132;47.946;10.394;2023-01-01T08:21:36;5.30;;;4.37;;
18013;SDS011;9132;47.946;10.394;2023-01-01T08:24:03;5.10;;;4.30;;
18013;SDS011;9132;47.946;10.394;2023-01-01T08:26:31;6.67;;;3.93;;
18013;SDS011;9132;47.946;10.394;2023-01-01T08:28:58;3.93;;;3.40;;
18013;SDS011;9132;47.946;10.394;2023-01-01T08:31:24;5.07;;;3.70;;
18013;SDS011;9132;47.946;10.394;2023-01-01T08:33:51;4.17;;;3.40;;
18013;SDS011;9132;47.946;10.394;2023-01-01T08:36:17;5.67;;;3.13;;
18013;SDS011;9132;47.946;10.394;2023-01-01T08:38:44;3.70;;;2.83;;
18013;SDS011;9132;47.946;10.394;2023-01-01T08:41:11;2.80;;;2.30;;
18013;SDS011;9132;47.946;10.394;2023-01-01T08:43:38;3.27;;;2.47;;
18013;SDS011;9132;47.946;10.394;2023-01-01T08:46:05;2.77;;;2.07;;
18013;SDS011;9132;47.946;10.394;2023-01-01T08:48:31;3.93;;;2.40;;
18013;SDS011;9132;47.946;10.394;2023-01-01T08:50:58;3.43;;;2.73;;
18013;SDS011;9132;47.946;10.394;2023-01-01T08:53:25;5.60;;;2.50;;
18013;SDS011;9132;47.946;10.394;2023-01-01T08:55:54;2.60;;;2.40;;
18013;SDS011;9132;47.946;10.394;2023-01-01T08:58:21;2.90;;;2.20;;
18013;SDS011;9132;47.946;10.394;2023-01-01T09:00:48;2.10;;;1.90;;
18013;SDS011;9132;47.946;10.394;2023-01-01T09:03:15;3.10;;;2.70;;
18013;SDS011;9132;47.946;10.394;2023-01-01T09:05:41;2.80;;;2.00;;
18013;SDS011;9132;47.946;10.394;2023-01-01T09:08:09;1.67;;;1.57;;
18013;SDS011;9132;47.946;10.394;2023-01-01T09:10:36;2.80;;;1.67;;
18013;SDS011;9132;47.946;10.394;2023-01-01T09:13:02;2.37;;;1.80;;
18013;SDS011;9132;47.946;10.394;2023-01-01T09:15:28;2.40;;;1.73;;
18013;SDS011;9132;47.946;10.394;2023-01-01T09:17:56;2.10;;;1.90;;
18013;SDS011;9132;47.946;10.394;2023-01-01T09:20:22;3.97;;;2.20;;
18013;SDS011;9132;47.946;10.394;2023-01-01T09:22:49;1.70;;;1.53;;
18013;SDS011;9132;47.946;10.394;2023-01-01T09:25:15;2.00;;;1.70;;
18013;SDS011;9132;47.946;10.394;2023-01-01T09:27:41;2.20;;;1.57;;
18013;SDS011;9132;47.946;10.394;2023-01-01T09:30:08;1.70;;;1.53;;
18013;SDS011;9132;47.946;10.394;2023-01-01T09:32:34;2.60;;;2.00;;
18013;SDS011;9132;47.946;10.394;2023-01-01T09:35:02;4.50;;;1.87;;
18013;SDS011;9132;47.946;10.394;2023-01-01T09:37:29;2.27;;;1.70;;
18013;SDS011;9132;47.946;10.394;2023-01-01T09:39:55;1.77;;;1.63;;
18013;SDS011;9132;47.946;10.394;2023-01-01T09:42:25;2.30;;;1.80;;
18013;SDS011;9132;47.946;10.394;2023-01-01T09:44:58;3.40;;;1.60;;
18013;SDS011;9132;47.946;10.394;2023-01-01T09:47:28;1.90;;;1.63;;
18013;SDS011;9132;47.946;10.394;2023-01-01T09:49:55;2.33;;;1.80;;
18013;SDS011;9132;47.946;10.394;2023-01-01T09:52:24;3.23;;;1.80;;
18013;SDS011;9132;47.946;10.394;2023-01-01T09:54:54;2.87;;;1.40;;
18013;SDS011;9132;47.946;10.394;2023-01-01T09:57:22;3.10;;;1.53;;
18013;SDS011;9132;47.946;10.394;2023-01-01T09:59:50;2.80;;;1.70;;
18013;SDS011;9132;47.946;10.394;2023-01-01T10:02:20;1.90;;;1.70;;
18013;SDS011;9132;47.946;10.394;2023-01-01T10:04:55;2.57;;;1.50;;
18013;SDS011;9132;47.946;10.394;2023-01-01T10:07:28;2.57;;;1.63;;
18013;SDS011;9132;47.946;10.394;2023-01-01T10:09:58;1.67;;;1.58;;
18013;SDS011;9132;47.946;10.394;2023-01-01T10:12:29;2.70;;;1.80;;
18013;SDS011;9132;47.946;10.394;2023-01-01T10:15:01;2.23;;;1.70;;
18013;SDS011;9132;47.946;10.394;2023-01-01T10:17:31;2.70;;;1.80;;
18013;SDS011;9132;47.946;10.394;2023-01-01T10:19:59;4.38;;;1.98;;
18013;SDS011;9132;47.946;10.394;2023-01-01T10:22:30;1.77;;;1.60;;
18013;SDS011;9132;47.946;10.394;2023-01-01T10:24:58;3.10;;;1.73;;
18013;SDS011;9132;47.946;10.394;2023-01-01T10:27:27;1.40;;;1.30;;
18013;SDS011;9132;47.946;10.394;2023-01-01T10:29:55;1.47;;;1.37;;
18013;SDS011;9132;47.946;10.394;2023-01-01T10:32:27;2.85;;;1.73;;
18013;SDS011;9132;47.946;10.394;2023-01-01T10:34:54;1.70;;;1.60;;
18013;SDS011;9132;47.946;10.394;2023-01-01T10:37:20;2.22;;;1.70;;
18013;SDS011;9132;47.946;10.394;2023-01-01T10:39:48;2.70;;;1.52;;
18013;SDS011;9132;47.946;10.394;2023-01-01T10:42:15;4.00;;;1.90;;
18013;SDS011;9132;47.946;10.394;2023-01-01T10:44:41;2.13;;;1.65;;
18013;SDS011;9132;47.946;10.394;2023-01-01T10:47:17;2.60;;;1.60;;
18013;SDS011;9132;47.946;10.394;2023-01-01T10:49:52;1.38;;;1.15;;
18013;SDS011;9132;47.946;10.394;2023-01-01T10:52:18;2.35;;;1.85;;
18013;SDS011;9132;47.946;10.394;2023-01-01T10:54:48;2.97;;;1.67;;
18013;SDS011;9132;47.946;10.394;2023-01-01T10:57:15;2.03;;;1.70;;
18013;SDS011;9132;47.946;10.394;2023-01-01T10:59:43;2.23;;;1.70;;
18013;SDS011;9132;47.946;10.394;2023-01-01T11:02:19;2.63;;;1.70;;
18013;SDS011;9132;47.946;10.394;2023-01-01T11:04:46;2.42;;;1.90;;
18013;SDS011;9132;47.946;10.394;2023-01-01T11:07:17;2.90;;;2.20;;
18013;SDS011;9132;47.946;10.394;2023-01-01T11:09:46;1.97;;;1.60;;
18013;SDS011;9132;47.946;10.394;2023-01-01T11:12:16;1.63;;;1.53;;
18013;SDS011;9132;47.946;10.394;2023-01-01T11:14:47;2.90;;;1.52;;
18013;SDS011;9132;47.946;10.394;2023-01-01T11:17:19;2.97;;;1.77;;
18013;SDS011;9132;47.946;10.394;2023-01-01T11:19:46;2.15;;;1.48;;
18013;SDS011;9132;47.946;10.394;2023-01-01T11:22:16;2.08;;;1.60;;
18013;SDS011;9132;47.946;10.394;2023-01-01T11:24:59;1.60;;;1.50;;
18013;SDS011;9132;47.946;10.394;2023-01-01T11:27:27;2.15;;;1.50;;
18013;SDS011;9132;47.946;10.394;2023-01-01T11:29:55;1.98;;;1.52;;
18013;SDS011;9132;47.946;10.394;2023-01-01T11:32:38;1.40;;;1.30;;
18013;SDS011;9132;47.946;10.394;2023-01-01T11:35:05;1.95;;;1.60;;
18013;SDS011;9132;47.946;10.394;2023-01-01T11:37:40;2.25;;;1.75;;
18013;SDS011;9132;47.946;10.394;2023-01-01T11:40:14;2.55;;;1.77;;
18013;SDS011;9132;47.946;10.394;2023-01-01T11:42:43;1.70;;;1.52;;
18013;SDS011;9132;47.946;10.394;2023-01-01T11:45:12;1.60;;;1.50;;
18013;SDS011;9132;47.946;10.394;2023-01-01T11:47:42;3.10;;;1.83;;
18013;SDS011;9132;47.946;10.394;2023-01-01T11:50:16;2.72;;;1.70;;
18013;SDS011;9132;47.946;10.394;2023-01-01T11:52:44;1.65;;;1.55;;
18013;SDS011;9132;47.946;10.394;2023-01-01T11:55:12;1.73;;;1.50;;
18013;SDS011;9132;47.946;10.394;2023-01-01T11:57:40;1.90;;;1.70;;
18013;SDS011;9132;47.946;10.394;2023-01-01T12:00:11;2.05;;;1.58;;
18013;SDS011;9132;47.946;10.394;2023-01-01T12:02:39;2.00;;;1.58;;
18013;SDS011;9132;47.946;10.394;2023-01-01T12:05:08;1.90;;;1.30;;
18013;SDS011;9132;47.946;10.394;2023-01-01T12:07:38;3.00;;;1.10;;
18013;SDS011;9132;47.946;10.394;2023-01-01T12:10:08;1.67;;;1.25;;
18013;SDS011;9132;47.946;10.394;2023-01-01T12:12:40;7.63;;;6.13;;
18013;SDS011;9132;47.946;10.394;2023-01-01T12:15:13;6.13;;;5.32;;
18013;SDS011;9132;47.946;10.394;2023-01-01T12:17:42;3.70;;;3.40;;
18013;SDS011;9132;47.946;10.394;2023-01-01T12:20:10;4.47;;;2.60;;
18013;SDS011;9132;47.946;10.394;2023-01-01T12:22:38;3.00;;;2.65;;
18013;SDS011;9132;47.946;10.394;2023-01-01T12:25:05;5.68;;;3.25;;
18013;SDS011;9132;47.946;10.394;2023-01-01T12:27:37;1.58;;;1.38;;
18013;SDS011;9132;47.946;10.394;2023-01-01T12:30:12;2.45;;;1.20;;
18013;SDS011;9132;47.946;10.394;2023-01-01T12:35:23;1.67;;;1.20;;
18013;SDS011;9132;47.946;10.394;2023-01-01T12:37:55;1.50;;;1.27;;
18013;SDS011;9132;47.946;10.394;2023-01-01T12:40:37;1.77;;;1.20;;
18013;SDS011;9132;47.946;10.394;2023-01-01T12:43:06;2.10;;;1.40;;
18013;SDS011;9132;47.946;10.394;2023-01-01T12:45:58;2.58;;;1.20;;
18013;SDS011;9132;47.946;10.394;2023-01-01T12:48:30;1.58;;;1.20;;
18013;SDS011;9132;47.946;10.394;2023-01-01T12:51:00;1.65;;;1.40;;
18013;SDS011;9132;47.946;10.394;2023-01-01T12:53:31;1.48;;;1.30;;
18013;SDS011;9132;47.946;10.394;2023-01-01T12:56:03;2.95;;;1.38;;
18013;SDS011;9132;47.946;10.394;2023-01-01T12:58:35;1.30;;;1.17;;
18013;SDS011;9132;47.946;10.394;2023-01-01T13:01:05;1.73;;;1.23;;
18013;SDS011;9132;47.946;10.394;2023-01-01T13:03:35;2.10;;;1.45;;
18013;SDS011;9132;47.946;10.394;2023-01-01T13:06:02;2.53;;;1.25;;
18013;SDS011;9132;47.946;10.394;2023-01-01T13:08:29;2.03;;;1.35;;
18013;SDS011;9132;47.946;10.394;2023-01-01T13:10:57;1.58;;;1.38;;
18013;SDS011;9132;47.946;10.394;2023-01-01T13:13:25;1.27;;;1.17;;
18013;SDS011;9132;47.946;10.394;2023-01-01T13:15:52;1.70;;;1.50;;
18013;SDS011;9132;47.946;10.394;2023-01-01T13:18:27;1.70;;;1.40;;
18013;SDS011;9132;47.946;10.394;2023-01-01T13:20:58;1.20;;;1.10;;
18013;SDS011;9132;47.946;10.394;2023-01-01T13:23:45;1.63;;;1.52;;
18013;SDS011;9132;47.946;10.394;2023-01-01T13:26:30;2.50;;;1.90;;
18013;SDS011;9132;47.946;10.394;2023-01-01T13:34:35;2.25;;;1.60;;
18013;SDS011;9132;47.946;10.394;2023-01-01T13:39:50;1.70;;;1.40;;
18013;SDS011;9132;47.946;10.394;2023-01-01T13:44:58;2.05;;;1.50;;
18013;SDS011;9132;47.946;10.394;2023-01-01T13:47:26;2.67;;;1.23;;
18013;SDS011;9132;47.946;10.394;2023-01-01T13:50:03;1.40;;;1.30;;
18013;SDS011;9132;47.946;10.394;2023-01-01T13:52:37;1.40;;;1.27;;
18013;SDS011;9132;47.946;10.394;2023-01-01T13:55:28;1.30;;;1.20;;
18013;SDS011;9132;47.946;10.394;2023-01-01T13:58:12;1.90;;;1.48;;
18013;SDS011;9132;47.946;10.394;2023-01-01T14:00:44;1.55;;;1.20;;
18013;SDS011;9132;47.946;10.394;2023-01-01T14:03:19;1.30;;;1.20;;
18013;SDS011;9132;47.946;10.394;2023-01-01T14:05:48;1.95;;;1.23;;
18013;SDS011;9132;47.946;10.394;2023-01-01T14:08:28;2.58;;;1.42;;
18013;SDS011;9132;47.946;10.394;2023-01-01T14:10:55;4.43;;;1.50;;
18013;SDS011;9132;47.946;10.394;2023-01-01T14:13:21;2.30;;;1.20;;
18013;SDS011;9132;47.946;10.394;2023-01-01T14:15:52;4.07;;;1.58;;
18013;SDS011;9132;47.946;10.394;2023-01-01T14:18:19;1.58;;;1.30;;
18013;SDS011;9132;47.946;10.394;2023-01-01T14:20:46;1.98;;;1.70;;
18013;SDS011;9132;47.946;10.394;2023-01-01T14:23:15;2.22;;;1.52;;
18013;SDS011;9132;47.946;10.394;2023-01-01T14:25:42;2.22;;;1.42;;
18013;SDS011;9132;47.946;10.394;2023-01-01T14:28:11;2.03;;;1.38;;
18013;SDS011;9132;47.946;10.394;2023-01-01T14:30:39;1.45;;;1.30;;
18013;SDS011;9132;47.946;10.394;2023-01-01T14:33:19;1.48;;;1.23;;
18013;SDS011;9132;47.946;10.394;2023-01-01T14:35:49;1.80;;;1.38;;
18013;SDS011;9132;47.946;10.394;2023-01-01T14:38:21;1.98;;;1.63;;
18013;SDS011;9132;47.946;10.394;2023-01-01T14:40:50;2.05;;;1.42;;
18013;SDS011;9132;47.946;10.394;2023-01-01T14:43:23;1.55;;;1.35;;
18013;SDS011;9132;47.946;10.394;2023-01-01T14:45:50;1.65;;;1.55;;
18013;SDS011;9132;47.946;10.394;2023-01-01T14:48:17;1.63;;;1.52;;
18013;SDS011;9132;47.946;10.394;2023-01-01T14:50:45;2.80;;;1.30;;
18013;SDS011;9132;47.946;10.394;2023-01-01T14:53:13;1.50;;;1.40;;
18013;SDS011;9132;47.946;10.394;2023-01-01T14:55:44;1.60;;;1.40;;
18013;SDS011;9132;47.946;10.394;2023-01-01T14:58:11;1.98;;;1.48;;
18013;SDS011;9132;47.946;10.394;2023-01-01T15:00:38;2.00;;;1.63;;
18013;SDS011;9132;47.946;10.394;2023-01-01T15:03:05;1.55;;;1.38;;
18013;SDS011;9132;47.946;10.394;2023-01-01T15:05:33;1.80;;;1.65;;
18013;SDS011;9132;47.946;10.394;2023-01-01T15:08:00;2.00;;;1.80;;
18013;SDS011;9132;47.946;10.394;2023-01-01T15:10:28;2.45;;;1.90;;